Time;durP1;ratioP1;P1;durP2;ratioP2;P2;SDS_P1;SDS_P2;PMS_P1;PMS_P2;Temp;Humidity;BMP_temperature;BMP_pressure;BME280_temperature;BME280_humidity;BME280_pressure;Samples;Min_cycle;Max_cycle;Signal;HPM_P1;HPM_P2
2022/09/06 00:00:22;;;;;;;8.98;7.78;;;;;;;19.70;53.92;101177.47;5049130;28;20132;-22
2022/09/06 00:02:47;;;;;;;8.32;7.47;;;;;;;19.70;53.82;101188.19;5043284;28;20222;-23
2022/09/06 00:05:13;;;;;;;10.52;7.20;;;;;;;19.68;53.74;101187.41;5049517;28;20477;-21
2022/09/06 00:07:38;;;;;;;7.72;6.90;;;;;;;19.63;53.95;101178.69;5044318;28;20112;-22
2022/09/06 00:10:04;;;;;;;9.00;8.02;;;;;;;19.60;54.00;101185.00;5050050;28;20116;-24
2022/09/06 00:12:29;;;;;;;9.07;7.65;;;;;;;19.62;54.08;101193.84;5049463;28;20036;-22
2022/09/06 00:14:55;;;;;;;8.40;7.70;;;;;;;19.59;53.88;101199.31;5063645;28;20025;-23
2022/09/06 00:17:20;;;;;;;7.88;7.07;;;;;;;19.58;54.13;101208.28;5041398;28;20038;-22
2022/09/06 00:19:46;;;;;;;8.85;8.05;;;;;;;19.57;54.09;101201.19;5046072;28;20057;-23
2022/09/06 00:22:11;;;;;;;7.95;7.35;;;;;;;19.54;53.96;101209.34;5050079;28;20542;-22
2022/09/06 00:24:36;;;;;;;8.18;7.40;;;;;;;19.52;53.78;101204.03;5051331;28;20132;-22
2022/09/06 00:27:06;;;;;;;8.73;8.02;;;;;;;19.52;53.78;101192.47;5043672;28;20028;-22
2022/09/06 00:29:31;;;;;;;8.40;7.60;;;;;;;19.50;53.95;101189.84;5051469;28;20024;-21
2022/09/06 00:31:58;;;;;;;8.00;7.20;;;;;;;19.50;53.87;101192.50;5047210;28;20021;-23
2022/09/06 00:34:23;;;;;;;9.07;8.18;;;;;;;19.48;54.11;101194.41;5046725;28;20075;-23
2022/09/06 00:36:48;;;;;;;8.18;7.45;;;;;;;19.47;54.02;101196.19;5048613;28;20400;-23
2022/09/06 00:39:14;;;;;;;8.50;7.80;;;;;;;19.45;54.01;101192.72;5046641;28;20106;-23
2022/09/06 00:41:39;;;;;;;8.35;7.55;;;;;;;19.41;54.08;101191.06;5047457;28;20534;-22
2022/09/06 00:44:04;;;;;;;8.73;7.93;;;;;;;19.40;53.98;101191.16;5044978;28;20060;-23
2022/09/06 00:46:30;;;;;;;9.40;7.40;;;;;;;19.36;54.18;101180.56;5038959;28;20056;-23
2022/09/06 00:49:05;;;;;;;9.07;8.27;;;;;;;19.36;54.10;101188.59;5040179;28;20473;-22
2022/09/06 00:51:32;;;;;;;8.95;7.82;;;;;;;19.35;54.25;101196.66;5046077;28;20031;-22
2022/09/06 00:54:02;;;;;;;8.45;7.72;;;;;;;19.40;54.18;101208.03;5044683;28;20484;-23
2022/09/06 00:56:28;;;;;;;8.18;7.47;;;;;;;19.34;53.93;101201.13;5041962;28;20033;-22
2022/09/06 00:58:54;;;;;;;8.60;7.85;;;;;;;19.30;54.06;101203.97;5038708;28;20036;-22
2022/09/06 01:01:19;;;;;;;8.43;7.72;;;;;;;19.28;54.08;101198.69;5044968;28;20112;-22
2022/09/06 01:03:45;;;;;;;9.15;7.28;;;;;;;19.27;54.15;101204.97;5050643;28;20090;-23
2022/09/06 01:06:25;;;;;;;8.48;7.57;;;;;;;19.28;54.09;101201.38;5058790;28;20025;-23
2022/09/06 01:09:13;;;;;;;9.10;8.20;;;;;;;19.23;54.13;101196.19;5058175;28;20116;-22
2022/09/06 01:12:08;;;;;;;8.82;7.93;;;;;;;19.22;54.32;101196.25;5044601;28;20502;-22
2022/09/06 01:14:51;;;;;;;7.30;6.70;;;;;;;19.19;54.12;101191.00;5046061;28;20033;-22
2022/09/06 01:17:36;;;;;;;12.30;8.13;;;;;;;19.23;54.33;101200.66;5047783;28;20116;-23
2022/09/06 01:20:32;;;;;;;8.75;7.60;;;;;;;19.17;54.09;101199.09;5047880;28;20492;-23
2022/09/06 01:23:48;;;;;;;7.53;6.82;;;;;;;19.16;54.29;101194.69;5043615;28;20087;-23
2022/09/06 01:26:25;;;;;;;8.65;7.80;;;;;;;19.14;54.41;101203.69;5026223;28;20043;-23
2022/09/06 01:28:51;;;;;;;7.55;6.95;;;;;;;19.16;54.27;101201.81;5045173;28;20029;-23
2022/09/06 01:31:28;;;;;;;9.30;8.40;;;;;;;19.11;54.19;101188.63;5046633;28;20013;-23
2022/09/06 01:34:18;;;;;;;7.63;6.97;;;;;;;19.05;54.54;101192.38;5046529;28;20158;-23
2022/09/06 01:36:47;;;;;;;8.23;7.53;;;;;;;19.05;54.36;101195.03;5044685;28;20025;-23
2022/09/06 01:39:35;;;;;;;8.35;7.65;;;;;;;19.03;54.56;101196.88;5040482;28;20029;-23
2022/09/06 01:42:12;;;;;;;7.63;6.93;;;;;;;19.05;54.45;101197.72;5038972;28;20060;-23
2022/09/06 01:44:42;;;;;;;8.63;7.82;;;;;;;19.07;54.51;101203.00;5063154;28;20099;-23
2022/09/06 01:47:10;;;;;;;8.38;7.65;;;;;;;19.01;54.35;101188.06;5048091;28;20060;-24
2022/09/06 01:49:45;;;;;;;7.82;7.20;;;;;;;19.01;54.49;101198.75;5048385;28;20033;-22
2022/09/06 01:52:28;;;;;;;7.72;7.07;;;;;;;18.99;54.41;101192.59;5045813;28;20031;-23
2022/09/06 01:55:06;;;;;;;8.82;8.05;;;;;;;19.00;54.52;101190.78;5043910;28;20489;-22
2022/09/06 01:57:46;;;;;;;8.38;7.68;;;;;;;18.95;54.56;101181.16;5049983;28;20032;-23
2022/09/06 02:00:14;;;;;;;7.97;7.25;;;;;;;18.94;54.57;101190.06;5046172;28;20399;-22
2022/09/06 02:02:45;;;;;;;8.70;7.88;;;;;;;18.93;54.59;101187.44;5048011;28;20441;-22
2022/09/06 02:05:19;;;;;;;9.00;8.20;;;;;;;18.91;54.71;101178.63;5069574;28;20029;-23
2022/09/06 02:07:45;;;;;;;8.95;8.15;;;;;;;18.91;54.78;101174.16;5025739;28;20041;-23
2022/09/06 02:10:17;;;;;;;8.45;7.50;;;;;;;18.90;54.64;101174.22;5049567;28;20029;-22
2022/09/06 02:12:44;;;;;;;7.90;7.15;;;;;;;18.91;54.59;101170.63;5048436;28;20552;-23
2022/09/06 02:15:22;;;;;;;8.60;7.90;;;;;;;18.88;54.69;101163.59;5043584;28;20354;-22
2022/09/06 02:17:55;;;;;;;8.27;7.47;;;;;;;18.87;55.04;101159.16;5049995;28;20056;-23
2022/09/06 02:20:23;;;;;;;7.38;6.68;;;;;;;18.86;54.68;101152.06;5040973;28;20058;-23
2022/09/06 02:22:51;;;;;;;8.52;7.72;;;;;;;18.80;55.18;101142.47;5047614;28;20060;-23
2022/09/06 02:25:24;;;;;;;8.75;7.43;;;;;;;18.81;55.21;101144.22;5046667;28;20084;-24
2022/09/06 02:27:49;;;;;;;7.63;6.93;;;;;;;18.81;55.05;101143.38;5038713;28;20121;-22
2022/09/06 02:30:15;;;;;;;8.68;7.35;;;;;;;18.79;54.99;101140.75;5045841;28;20032;-22
2022/09/06 02:32:49;;;;;;;7.85;7.25;;;;;;;18.76;55.18;101148.88;5058127;28;20047;-23
2022/09/06 02:35:16;;;;;;;8.55;7.75;;;;;;;18.74;55.17;101152.53;5040878;28;20048;-22
2022/09/06 02:37:42;;;;;;;9.10;7.32;;;;;;;18.73;55.19;101162.31;5043406;28;20127;-22
2022/09/06 02:40:09;;;;;;;7.90;7.22;;;;;;;18.72;55.16;101142.78;5050300;28;20552;-22
2022/09/06 02:42:34;;;;;;;8.13;7.32;;;;;;;18.72;55.19;101139.22;5042743;28;20029;-23
2022/09/06 02:45:00;;;;;;;8.25;7.55;;;;;;;18.65;55.59;101127.88;5049075;28;20507;-23
2022/09/06 02:47:25;;;;;;;7.65;6.95;;;;;;;18.67;54.95;101143.88;5047250;28;20036;-22
2022/09/06 02:49:50;;;;;;;7.80;7.10;;;;;;;18.63;55.06;101150.22;5044410;28;20388;-23
2022/09/06 02:52:16;;;;;;;7.13;6.30;;;;;;;18.61;55.39;101157.44;5048791;28;20038;-22
2022/09/06 02:54:41;;;;;;;7.55;6.95;;;;;;;18.61;55.16;101157.44;5054587;28;20032;-23
2022/09/06 02:57:06;;;;;;;7.60;7.00;;;;;;;18.57;55.45;101162.88;5054216;28;20503;-22
2022/09/06 02:59:32;;;;;;;7.57;6.97;;;;;;;18.55;55.30;101171.88;5053427;28;20032;-22
2022/09/06 03:01:57;;;;;;;7.90;7.18;;;;;;;18.55;55.30;101167.41;5053134;28;20029;-25
2022/09/06 03:04:22;;;;;;;8.07;7.32;;;;;;;18.53;55.41;101169.25;5054211;28;20032;-24
2022/09/06 03:06:48;;;;;;;7.50;6.80;;;;;;;18.51;55.43;101157.72;5051173;28;20024;-24
2022/09/06 03:09:13;;;;;;;7.00;6.43;;;;;;;18.55;55.42;101146.03;5043864;28;20037;-24
2022/09/06 03:11:38;;;;;;;7.90;7.10;;;;;;;18.50;55.25;101145.31;5053936;28;20017;-23
2022/09/06 03:14:04;;;;;;;7.35;6.75;;;;;;;18.48;55.39;101151.63;5054363;28;20029;-24
2022/09/06 03:19:00;;;;;;;7.43;6.80;;;;;;;18.46;55.48;101135.66;5068884;28;20098;-29
2022/09/06 03:21:25;;;;;;;7.93;7.13;;;;;;;18.47;55.40;101134.72;5069694;28;20024;-29
2022/09/06 03:23:55;;;;;;;7.60;6.88;;;;;;;18.41;55.57;101124.28;5072851;28;20030;-29
2022/09/06 03:26:20;;;;;;;7.18;6.57;;;;;;;18.41;55.26;101113.59;5073858;28;20388;-29
2022/09/06 03:28:45;;;;;;;7.22;6.63;;;;;;;18.38;55.56;101119.94;5075074;28;20550;-29
2022/09/06 03:31:11;;;;;;;7.35;6.68;;;;;;;18.37;55.60;101117.31;5074859;28;20376;-29
2022/09/06 03:33:36;;;;;;;7.80;7.20;;;;;;;18.35;55.53;101114.69;5068163;28;20079;-29
2022/09/06 03:36:17;;;;;;;7.57;6.97;;;;;;;18.33;55.80;101122.75;5072263;28;20413;-28
2022/09/06 03:38:42;;;;;;;7.68;6.88;;;;;;;18.31;55.66;101113.91;5069362;28;20040;-29
2022/09/06 03:41:07;;;;;;;7.25;6.65;;;;;;;18.32;55.52;101115.69;5063693;28;20017;-29
2022/09/06 03:43:33;;;;;;;7.60;7.00;;;;;;;18.28;55.69;101108.66;5060957;28;20032;-29
2022/09/06 03:45:58;;;;;;;7.82;7.13;;;;;;;18.27;55.72;101106.94;5071106;28;20391;-29
2022/09/06 03:48:28;;;;;;;7.63;6.93;;;;;;;18.24;55.73;101101.69;5071267;28;20580;-28
2022/09/06 03:50:55;;;;;;;7.53;6.83;;;;;;;18.21;55.85;101097.34;5070338;28;20028;-29
2022/09/06 03:53:22;;;;;;;7.38;6.78;;;;;;;18.22;55.83;101108.91;5070607;28;20290;-29
2022/09/06 03:55:50;;;;;;;8.23;7.50;;;;;;;18.17;55.89;101102.84;5071400;28;20036;-28
2022/09/06 03:58:16;;;;;;;7.15;6.45;;;;;;;18.18;55.73;101115.28;5071206;28;20029;-29
2022/09/06 04:00:42;;;;;;;7.45;6.75;;;;;;;18.16;55.62;101109.97;5069714;28;20044;-28
2022/09/06 04:03:07;;;;;;;8.13;7.43;;;;;;;18.14;55.93;101117.16;5068577;28;20103;-28
2022/09/06 04:05:33;;;;;;;9.10;6.47;;;;;;;18.13;55.71;101114.53;5062171;28;20028;-28
2022/09/06 04:07:58;;;;;;;7.85;7.15;;;;;;;18.09;56.08;101119.13;5061965;28;20457;-29
2022/09/06 04:10:23;;;;;;;7.97;7.18;;;;;;;18.11;55.86;101111.06;5069108;28;20059;-29
2022/09/06 04:12:49;;;;;;;8.07;7.32;;;;;;;18.09;55.80;101116.44;5070755;28;20056;-29
2022/09/06 04:15:14;;;;;;;7.78;7.10;;;;;;;18.05;56.31;101118.34;5072693;28;20581;-29
2022/09/06 04:17:44;;;;;;;8.15;7.28;;;;;;;18.07;56.11;101126.25;5069280;28;20029;-29
2022/09/06 04:20:09;;;;;;;7.43;6.70;;;;;;;18.00;56.10;101127.41;5067040;28;20155;-29
2022/09/06 04:22:34;;;;;;;7.82;7.13;;;;;;;17.98;56.32;101122.13;5071735;28;20633;-29
2022/09/06 04:25:00;;;;;;;7.20;6.50;;;;;;;17.98;56.10;101124.78;5072758;28;20029;-28
2022/09/06 04:27:25;;;;;;;7.38;6.78;;;;;;;17.97;55.86;101117.69;5070090;28;20047;-29
2022/09/06 04:29:52;;;;;;;6.80;6.20;;;;;;;17.97;56.15;101111.50;5071369;28;20403;-29
2022/09/06 04:32:17;;;;;;;8.65;7.75;;;;;;;17.95;56.25;101112.41;5063011;28;20027;-29
2022/09/06 04:34:43;;;;;;;7.63;6.93;;;;;;;17.95;56.38;101098.19;5070582;28;20032;-28
2022/09/06 04:37:08;;;;;;;7.97;7.18;;;;;;;17.91;56.35;101089.41;5072357;28;20559;-29
2022/09/06 04:39:33;;;;;;;7.18;6.43;;;;;;;17.89;56.42;101095.72;5060073;28;20095;-29
2022/09/06 04:41:58;;;;;;;7.60;6.90;;;;;;;17.88;56.22;101094.88;5073251;28;20411;-28
2022/09/06 04:44:24;;;;;;;7.78;7.03;;;;;;;17.85;56.50;101078.97;5070831;28;20024;-29
2022/09/06 04:46:49;;;;;;;7.22;6.63;;;;;;;17.85;56.21;101078.97;5073043;28;20030;-29
2022/09/06 04:49:14;;;;;;;8.15;7.35;;;;;;;17.82;56.56;101087.94;5070056;28;20028;-28
2022/09/06 04:51:40;;;;;;;8.60;7.80;;;;;;;17.83;56.35;101097.69;5062688;28;20025;-28
2022/09/06 04:54:05;;;;;;;7.60;6.80;;;;;;;17.81;56.39;101094.19;5065641;28;20039;-28
2022/09/06 04:56:31;;;;;;;8.40;7.57;;;;;;;17.79;56.27;101090.72;5059918;28;20476;-29
2022/09/06 04:58:56;;;;;;;7.93;7.22;;;;;;;17.77;56.38;101097.03;5069053;28;20036;-29
2022/09/06 05:01:22;;;;;;;8.30;7.43;;;;;;;17.76;56.35;101101.47;5069347;28;20399;-29
2022/09/06 05:03:47;;;;;;;7.43;6.60;;;;;;;17.75;56.41;101089.06;5070433;28;20085;-29
2022/09/06 05:06:17;;;;;;;7.72;6.93;;;;;;;17.72;56.51;101088.28;5072277;28;20137;-29
2022/09/06 05:08:42;;;;;;;7.70;7.03;;;;;;;17.74;56.30;101087.31;5060736;28;20055;-29
2022/09/06 05:11:09;;;;;;;7.75;6.95;;;;;;;17.74;56.50;101086.44;5064383;28;20499;-29
2022/09/06 05:13:34;;;;;;;7.70;7.00;;;;;;;17.70;56.67;101085.66;5068895;28;20451;-29
2022/09/06 05:16:10;;;;;;;8.77;7.85;;;;;;;17.71;56.43;101087.44;5065154;28;20054;-29
2022/09/06 05:18:36;;;;;;;8.70;7.68;;;;;;;17.70;56.62;101088.31;5070102;28;20025;-29
2022/09/06 05:21:01;;;;;;;8.18;7.38;;;;;;;17.69;56.59;101086.59;5063616;28;20407;-29
2022/09/06 05:23:27;;;;;;;7.57;6.97;;;;;;;17.67;56.72;101083.09;5072250;28;20495;-29
2022/09/06 05:25:52;;;;;;;7.65;6.47;;;;;;;17.63;56.80;101084.09;5071145;28;20043;-29
2022/09/06 05:28:18;;;;;;;7.22;6.53;;;;;;;17.63;56.51;101089.44;5071286;28;20067;-29
2022/09/06 05:30:43;;;;;;;7.78;7.15;;;;;;;17.64;56.61;101091.22;5067355;28;20032;-29
2022/09/06 05:33:09;;;;;;;8.15;6.90;;;;;;;17.64;56.69;101101.88;5058903;28;20032;-30
2022/09/06 05:35:35;;;;;;;8.13;7.32;;;;;;;17.63;56.65;101100.09;5068567;28;20029;-29
2022/09/06 05:38:10;;;;;;;7.38;6.47;;;;;;;17.62;56.76;101099.25;5054178;28;20078;-29
2022/09/06 05:40:36;;;;;;;7.60;6.90;;;;;;;17.62;56.58;101103.72;5072221;28;20016;-29
2022/09/06 05:43:02;;;;;;;7.53;6.65;;;;;;;17.64;56.39;101107.22;5070387;28;20098;-29
2022/09/06 05:45:27;;;;;;;8.18;7.38;;;;;;;17.63;56.70;101105.44;5071013;28;20112;-29
2022/09/06 05:47:53;;;;;;;7.82;7.13;;;;;;;17.59;56.81;101107.34;5071579;28;20107;-29
2022/09/06 05:50:18;;;;;;;8.10;7.38;;;;;;;17.57;56.81;101110.06;5072301;28;20051;-29
2022/09/06 05:52:43;;;;;;;8.13;7.32;;;;;;;17.57;56.83;101107.41;5071477;28;20028;-29
2022/09/06 05:55:09;;;;;;;7.53;6.93;;;;;;;17.57;56.80;101107.41;5063489;28;20391;-29
2022/09/06 05:57:34;;;;;;;7.85;7.07;;;;;;;17.58;56.77;101113.63;5055285;28;20024;-30
2022/09/06 06:00:01;;;;;;;8.30;7.55;;;;;;;17.56;56.91;101111.00;5055411;28;20049;-29
2022/09/06 06:02:26;;;;;;;8.05;7.35;;;;;;;17.55;56.78;101119.88;5077935;28;20048;-28
2022/09/06 06:04:53;;;;;;;8.73;7.20;;;;;;;17.54;56.82;101120.81;5051629;28;20471;-29
2022/09/06 06:07:18;;;;;;;8.85;7.95;;;;;;;17.55;56.90;101125.22;5052044;28;20100;-29
2022/09/06 06:09:43;;;;;;;8.10;7.32;;;;;;;17.56;56.67;101119.00;5052189;28;20068;-29
2022/09/06 06:12:09;;;;;;;8.23;7.53;;;;;;;17.57;56.99;101111.84;5052166;28;20025;-29
2022/09/06 06:14:34;;;;;;;7.80;7.05;;;;;;;17.58;56.68;101118.94;5064674;28;20060;-29
2022/09/06 06:16:59;;;;;;;9.30;7.55;;;;;;;17.59;56.69;101114.47;5065485;28;20082;-30
2022/09/06 06:19:25;;;;;;;8.77;7.97;;;;;;;17.57;56.69;101112.72;5070585;28;20066;-29
2022/09/06 06:21:51;;;;;;;8.70;7.53;;;;;;;17.59;56.78;101109.13;5052437;28;20025;-30
2022/09/06 06:24:16;;;;;;;8.43;7.57;;;;;;;17.60;56.77;101113.56;5055581;28;20047;-29
2022/09/06 06:26:41;;;;;;;8.40;6.70;;;;;;;17.60;56.87;101121.56;5055584;28;20025;-29
2022/09/06 06:29:08;;;;;;;8.27;7.40;;;;;;;17.61;56.86;101118.81;5063631;28;20036;-29
2022/09/06 06:31:35;;;;;;;7.72;7.03;;;;;;;17.63;56.63;101116.09;5075315;28;20484;-29
2022/09/06 06:34:24;;;;;;;7.72;7.03;;;;;;;17.65;56.59;101114.28;5057569;28;20392;-29
2022/09/06 06:36:49;;;;;;;9.13;6.72;;;;;;;17.67;56.66;101117.75;5076254;28;20095;-29
2022/09/06 06:39:14;;;;;;;8.27;7.05;;;;;;;17.68;56.86;101115.03;5074794;28;20046;-29
2022/09/06 06:41:39;;;;;;;7.80;7.10;;;;;;;17.71;56.54;101122.09;5070786;28;20525;-30
2022/09/06 06:44:05;;;;;;;7.35;6.60;;;;;;;17.73;56.38;101119.34;5075230;28;20024;-29
2022/09/06 06:46:33;;;;;;;8.45;7.65;;;;;;;17.74;56.92;101119.31;5073662;28;20020;-30
2022/09/06 06:48:58;;;;;;;7.65;6.85;;;;;;;17.76;57.01;101121.94;5073360;28;20032;-29
2022/09/06 06:51:27;;;;;;;7.75;6.70;;;;;;;17.77;56.98;101119.22;5068906;28;20029;-29
2022/09/06 06:53:53;;;;;;;7.88;7.07;;;;;;;17.83;56.99;101119.03;5061917;28;20484;-30
2022/09/06 06:56:24;;;;;;;8.00;7.30;;;;;;;17.85;57.14;101123.44;5075382;28;20029;-29
2022/09/06 06:58:52;;;;;;;7.15;6.45;;;;;;;17.87;57.09;101114.44;5075256;28;20020;-29
2022/09/06 07:01:19;;;;;;;8.20;7.40;;;;;;;17.89;57.16;101112.63;5074786;28;20028;-29
2022/09/06 07:03:45;;;;;;;8.25;6.80;;;;;;;17.92;57.32;101117.88;5074942;28;20127;-29
2022/09/06 07:06:11;;;;;;;9.00;7.80;;;;;;;17.96;57.16;101115.94;5074991;28;20511;-29
2022/09/06 07:08:37;;;;;;;9.27;7.13;;;;;;;18.00;56.84;101108.72;5070184;28;20360;-29
2022/09/06 07:11:04;;;;;;;9.15;7.30;;;;;;;18.03;56.81;101122.84;5073660;28;20040;-29
2022/09/06 07:13:30;;;;;;;8.43;7.45;;;;;;;18.05;57.05;101118.34;5073811;28;20024;-29
2022/09/06 07:16:20;;;;;;;8.40;7.60;;;;;;;18.10;56.88;101120.84;5074717;28;20036;-29
2022/09/06 07:18:49;;;;;;;8.13;7.43;;;;;;;18.14;57.18;101124.31;5069358;28;20041;-29
2022/09/06 07:21:16;;;;;;;8.15;7.45;;;;;;;18.17;57.22;101127.72;5074869;28;20025;-29
2022/09/06 07:23:43;;;;;;;8.10;7.43;;;;;;;18.19;57.11;101128.56;5064910;28;20051;-30
2022/09/06 07:26:20;;;;;;;8.07;7.38;;;;;;;18.21;57.08;101126.69;5074513;28;20471;-29
2022/09/06 07:28:46;;;;;;;10.07;7.47;;;;;;;18.22;57.18;101130.25;5074542;28;20399;-29
2022/09/06 07:31:12;;;;;;;8.15;7.35;;;;;;;18.24;57.11;101125.72;5064720;28;20666;-29
2022/09/06 07:33:38;;;;;;;8.63;7.20;;;;;;;18.28;57.03;101135.38;5053632;28;20095;-29
2022/09/06 07:36:05;;;;;;;7.38;6.68;;;;;;;18.30;56.99;101133.53;5054758;28;20021;-30
2022/09/06 07:38:31;;;;;;;8.27;7.47;;;;;;;18.33;57.00;101128.09;5056563;28;20110;-29
2022/09/06 07:41:04;;;;;;;8.25;7.45;;;;;;;18.36;56.96;101116.44;5070173;28;20445;-29
2022/09/06 07:43:30;;;;;;;8.52;7.60;;;;;;;18.37;56.92;101112.81;5073942;28;20024;-29
2022/09/06 07:46:10;;;;;;;8.48;7.55;;;;;;;18.39;56.94;101121.66;5074196;28;20486;-29
2022/09/06 07:48:39;;;;;;;7.65;6.95;;;;;;;18.42;57.50;101131.34;5074593;28;20027;-29
2022/09/06 07:51:08;;;;;;;8.70;7.80;;;;;;;18.46;57.21;101128.53;5072313;28;20510;-29
2022/09/06 07:53:40;;;;;;;8.73;7.93;;;;;;;18.50;57.27;101126.63;5073513;28;20491;-29
2022/09/06 07:56:08;;;;;;;7.75;6.88;;;;;;;18.50;56.94;101131.97;5065933;28;20029;-29
2022/09/06 07:58:34;;;;;;;8.63;7.75;;;;;;;18.53;57.08;101126.50;5070569;28;20120;-29
2022/09/06 08:01:31;;;;;;;7.47;6.78;;;;;;;18.56;57.66;101123.75;5054214;28;20373;-29
2022/09/06 08:04:00;;;;;;;8.73;7.25;;;;;;;18.60;57.47;101129.81;5052662;28;20421;-29
2022/09/06 08:06:27;;;;;;;8.90;8.00;;;;;;;18.64;57.42;101120.78;5054036;28;20024;-29
2022/09/06 08:08:53;;;;;;;9.05;7.43;;;;;;;18.68;57.43;101124.22;5054104;28;20365;-29
2022/09/06 08:11:19;;;;;;;7.78;7.07;;;;;;;18.73;57.10;101122.25;5066524;28;20029;-29
2022/09/06 08:13:50;;;;;;;7.45;6.75;;;;;;;18.76;56.95;101119.47;5072693;28;20028;-29
2022/09/06 08:16:15;;;;;;;7.63;7.03;;;;;;;18.82;57.19;101113.91;5073681;28;20099;-29
2022/09/06 08:18:41;;;;;;;8.15;7.35;;;;;;;18.87;57.27;101111.06;5072471;28;20167;-29
2022/09/06 08:21:07;;;;;;;8.48;7.72;;;;;;;18.89;57.22;101106.53;5073491;28;20028;-29
2022/09/06 08:23:33;;;;;;;8.75;7.88;;;;;;;18.93;57.32;101102.81;5071704;28;20480;-29
2022/09/06 08:26:01;;;;;;;8.23;7.32;;;;;;;18.97;57.39;101100.88;5059928;28;20029;-29
2022/09/06 08:28:26;;;;;;;8.82;8.02;;;;;;;19.02;57.12;101104.28;5070921;28;20047;-29
2022/09/06 08:30:52;;;;;;;8.45;7.63;;;;;;;19.04;57.37;101107.75;5073281;28;20476;-29
2022/09/06 08:33:20;;;;;;;8.80;8.00;;;;;;;19.10;56.89;101107.56;5073063;28;20021;-29
2022/09/06 08:35:56;;;;;;;8.18;6.82;;;;;;;19.14;57.27;101102.94;5071927;28;20029;-28
2022/09/06 08:38:28;;;;;;;8.05;7.43;;;;;;;19.17;57.13;101105.50;5073159;28;20032;-29
2022/09/06 08:41:06;;;;;;;8.68;7.55;;;;;;;19.24;56.90;101103.47;5073518;28;20024;-29
2022/09/06 08:43:32;;;;;;;9.85;7.63;;;;;;;19.30;56.92;101099.69;5073071;28;20032;-29
2022/09/06 08:45:57;;;;;;;8.25;7.45;;;;;;;19.36;56.86;101102.13;5056830;28;20040;-29
2022/09/06 08:48:24;;;;;;;9.07;8.27;;;;;;;19.42;56.81;101101.91;5053479;28;20032;-29
2022/09/06 08:51:36;;;;;;;8.73;8.02;;;;;;;19.57;56.68;101089.69;5071983;28;20480;-29
2022/09/06 08:54:10;;;;;;;8.93;7.60;;;;;;;19.71;56.38;101085.59;5069407;28;20047;-29
2022/09/06 08:56:53;;;;;;;8.63;7.93;;;;;;;19.83;56.34;101089.56;5072803;28;20024;-29
2022/09/06 08:59:19;;;;;;;9.13;8.23;;;;;;;19.89;56.26;101083.94;5071748;28;20017;-29
2022/09/06 09:02:03;;;;;;;8.70;7.88;;;;;;;19.97;55.96;101075.59;5071722;28;20399;-29
2022/09/06 09:04:29;;;;;;;8.63;7.82;;;;;;;20.07;55.87;101071.63;5071246;28;20028;-29
2022/09/06 09:06:59;;;;;;;7.45;6.75;;;;;;;20.14;55.74;101066.88;5072600;28;20046;-29
2022/09/06 09:09:26;;;;;;;7.38;6.68;;;;;;;20.22;55.65;101066.53;5038437;28;20035;-29
2022/09/06 09:11:51;;;;;;;8.30;7.47;;;;;;;20.32;55.44;101067.91;5071539;28;20036;-29
2022/09/06 09:14:25;;;;;;;7.95;7.15;;;;;;;20.40;55.30;101066.69;5051878;28;20033;-29
2022/09/06 09:19:18;;;;;;;8.93;8.05;;;;;;;20.51;55.26;101061.72;5092777;28;20044;-28
2022/09/06 09:21:49;;;;;;;9.23;7.13;;;;;;;20.58;55.08;101062.31;5083419;28;20035;-29
2022/09/06 09:24:16;;;;;;;8.05;7.35;;;;;;;20.74;55.17;101055.28;5089268;28;20127;-28
2022/09/06 09:26:48;;;;;;;8.23;7.47;;;;;;;20.86;54.67;101059.22;5073023;28;20020;-28
2022/09/06 09:29:14;;;;;;;8.43;7.57;;;;;;;20.98;54.76;101051.59;5072346;28;20025;-28
2022/09/06 09:31:48;;;;;;;8.10;7.30;;;;;;;21.08;54.86;101044.84;5072520;28;20031;-28
2022/09/06 09:34:32;;;;;;;10.45;7.45;;;;;;;21.21;54.41;101026.34;5068938;28;20034;-29
2022/09/06 09:37:16;;;;;;;9.80;7.72;;;;;;;21.37;54.00;101029.16;5084927;28;20020;-28
2022/09/06 09:39:42;;;;;;;8.63;7.82;;;;;;;21.60;53.81;101027.13;5092587;28;20024;-28
2022/09/06 09:42:08;;;;;;;10.38;7.65;;;;;;;21.61;53.69;101023.50;5091103;28;20031;-28
2022/09/06 09:44:42;;;;;;;7.65;6.93;;;;;;;21.94;53.78;101021.03;5091440;28;20046;-29
2022/09/06 09:47:41;;;;;;;7.45;6.85;;;;;;;22.01;53.63;101009.03;5073095;28;20475;-29
2022/09/06 09:50:28;;;;;;;10.77;7.45;;;;;;;22.08;53.26;101007.75;5022872;28;20037;-28
2022/09/06 09:52:54;;;;;;;8.88;7.40;;;;;;;22.18;53.32;101000.94;5056658;28;20503;-29
2022/09/06 09:55:23;;;;;;;7.63;7.03;;;;;;;22.44;53.08;101000.47;5092124;28;20060;-29
2022/09/06 09:57:49;;;;;;;7.47;6.88;;;;;;;22.60;52.51;100994.31;5057391;28;20043;-28
2022/09/06 10:00:31;;;;;;;8.07;7.28;;;;;;;22.67;52.19;100996.56;5074242;28;20024;-29
2022/09/06 10:02:56;;;;;;;8.52;7.68;;;;;;;22.82;52.30;100988.63;5072785;28;20487;-28
2022/09/06 10:05:23;;;;;;;8.07;7.45;;;;;;;22.94;52.39;100985.22;5091956;28;20097;-28
2022/09/06 10:07:50;;;;;;;11.60;7.25;;;;;;;23.04;51.95;100982.88;5070851;28;20391;-28
2022/09/06 10:10:26;;;;;;;8.10;7.32;;;;;;;23.18;51.82;100974.00;5073475;28;20423;-28
2022/09/06 10:13:41;;;;;;;9.15;7.88;;;;;;;23.37;51.80;100967.59;5073573;28;20031;-28
2022/09/06 10:16:07;;;;;;;7.60;6.90;;;;;;;23.63;51.50;100973.25;5092161;28;20089;-29
2022/09/06 10:18:39;;;;;;;7.93;7.15;;;;;;;23.77;51.12;100979.66;5091774;28;20035;-29
2022/09/06 10:21:28;;;;;;;8.27;7.57;;;;;;;23.88;51.21;100990.66;5074314;28;20103;-29
2022/09/06 10:24:16;;;;;;;7.93;7.22;;;;;;;24.04;51.22;100987.00;5072287;28;20036;-29
2022/09/06 10:26:53;;;;;;;8.45;7.32;;;;;;;24.11;50.97;100996.44;5074040;28;20055;-29
2022/09/06 10:29:38;;;;;;;7.47;6.85;;;;;;;24.27;50.78;100990.16;5092041;28;20458;-29
2022/09/06 10:32:30;;;;;;;7.63;6.85;;;;;;;24.46;50.40;100989.84;5091650;28;20036;-28
2022/09/06 10:35:09;;;;;;;8.57;7.68;;;;;;;24.57;50.29;100987.31;5091063;28;20020;-28
2022/09/06 10:37:44;;;;;;;8.75;6.97;;;;;;;24.67;50.12;100992.16;5072550;28;20028;-28
2022/09/06 10:40:12;;;;;;;8.32;7.20;;;;;;;24.70;49.63;100984.72;5073311;28;20045;-28
2022/09/06 10:42:58;;;;;;;7.40;6.80;;;;;;;24.94;49.25;100983.25;5090675;28;20439;-29
2022/09/06 10:45:39;;;;;;;9.27;7.20;;;;;;;24.94;49.24;100992.22;5057250;28;20067;-27
2022/09/06 10:48:16;;;;;;;10.55;6.95;;;;;;;25.15;49.16;100994.47;5091316;28;20111;-29
2022/09/06 10:50:57;;;;;;;8.02;7.32;;;;;;;25.13;48.97;101001.78;5073308;28;20024;-29
2022/09/06 10:53:33;;;;;;;7.53;6.80;;;;;;;25.30;49.01;100994.41;5071526;28;20074;-29
2022/09/06 10:56:05;;;;;;;9.82;7.15;;;;;;;25.41;49.07;100993.69;5091353;28;20085;-29
2022/09/06 10:58:35;;;;;;;7.78;7.07;;;;;;;25.40;48.82;101009.03;5072852;28;20086;-29
2022/09/06 11:01:01;;;;;;;7.53;6.82;;;;;;;25.49;48.58;101008.44;5073225;28;20508;-29
2022/09/06 11:03:44;;;;;;;7.40;6.72;;;;;;;25.58;49.00;101006.94;5090467;28;20028;-27
2022/09/06 11:06:10;;;;;;;7.70;7.00;;;;;;;25.79;49.09;101001.06;5072393;28;20023;-29
2022/09/06 11:08:55;;;;;;;8.00;7.30;;;;;;;25.89;48.72;101004.00;5092202;28;20457;-29
2022/09/06 11:11:26;;;;;;;9.02;6.70;;;;;;;25.96;48.46;101004.41;5093018;28;20042;-27
2022/09/06 11:13:51;;;;;;;7.40;6.80;;;;;;;26.11;48.33;101005.22;5059186;28;20072;-28
2022/09/06 11:16:24;;;;;;;8.07;7.18;;;;;;;26.21;47.96;101002.72;5076015;28;20027;-28
2022/09/06 11:18:55;;;;;;;9.18;7.00;;;;;;;26.33;48.01;101009.97;5094600;28;20028;-29
2022/09/06 11:21:59;;;;;;;7.65;6.55;;;;;;;26.31;47.63;101013.78;5094718;28;20031;-28
2022/09/06 11:25:14;;;;;;;8.02;6.25;;;;;;;26.45;47.34;101032.59;5092893;28;20024;-28
2022/09/06 11:27:41;;;;;;;7.43;6.72;;;;;;;26.49;47.04;101023.28;5059510;28;20391;-28
2022/09/06 11:30:13;;;;;;;6.85;6.25;;;;;;;26.46;47.00;101023.50;5076420;28;20034;-28
2022/09/06 11:32:47;;;;;;;9.13;6.45;;;;;;;26.43;47.06;101012.00;5059311;28;20026;-29
2022/09/06 11:35:43;;;;;;;6.82;6.32;;;;;;;26.42;47.02;101016.56;5044061;28;20028;-28
2022/09/06 11:38:25;;;;;;;6.47;5.97;;;;;;;26.45;47.12;101008.25;5091518;28;20031;-29
2022/09/06 11:41:00;;;;;;;7.15;6.45;;;;;;;26.43;47.23;101004.78;5086878;28;20496;-29
2022/09/06 11:43:51;;;;;;;9.23;6.80;;;;;;;26.45;47.08;101008.25;5074655;28;20032;-29